createdAt,value
2017-12-30T00:02:14.145Z,7.80
2017-12-30T00:04:42.499Z,12.20
2017-12-30T00:07:10.874Z,9.10
2017-12-30T00:09:39.225Z,8.27
2017-12-30T00:12:07.602Z,14.53
2017-12-30T00:14:35.954Z,9.57
2017-12-30T00:17:05.100Z,10.03
2017-12-30T00:19:33.458Z,16.60
2017-12-30T00:22:01.846Z,14.50
2017-12-30T00:24:31.085Z,12.73
2017-12-30T00:26:59.449Z,10.70
2017-12-30T00:29:27.809Z,13.57
2017-12-30T00:31:56.214Z,16.03
2017-12-30T00:34:24.617Z,9.90
2017-12-30T00:36:53.755Z,6.27
2017-12-30T00:39:22.197Z,12.30
2017-12-30T00:41:50.991Z,9.47
2017-12-30T00:44:20.143Z,13.70
2017-12-30T00:46:48.750Z,11.10
2017-12-30T00:49:17.134Z,15.70
2017-12-30T00:51:45.470Z,7.40
2017-12-30T00:54:13.839Z,12.60
2017-12-30T00:56:42.319Z,11.53
2017-12-30T00:59:10.670Z,8.00
2017-12-30T01:01:39.182Z,14.90
2017-12-30T01:04:07.554Z,17.10
2017-12-30T01:06:35.957Z,10.70
2017-12-30T01:09:04.625Z,14.43
2017-12-30T01:11:33.059Z,15.40
2017-12-30T01:14:02.246Z,10.87
2017-12-30T01:16:30.622Z,12.30
2017-12-30T01:18:58.797Z,16.67
2017-12-30T01:21:27.939Z,16.73
2017-12-30T01:23:58.796Z,16.50
2017-12-30T01:26:27.159Z,12.63
2017-12-30T01:28:55.626Z,12.10
2017-12-30T01:31:24.257Z,9.57
2017-12-30T01:33:52.623Z,14.90
2017-12-30T01:36:21.708Z,16.90
2017-12-30T01:38:50.101Z,14.57
2017-12-30T01:41:18.514Z,17.57
2017-12-30T01:43:47.631Z,18.30
2017-12-30T01:46:16.004Z,20.27
2017-12-30T01:48:55.622Z,19.30
2017-12-30T01:51:24.749Z,13.97
2017-12-30T01:53:53.109Z,10.43
2017-12-30T01:56:22.250Z,12.20
2017-12-30T01:58:51.120Z,13.73
2017-12-30T02:01:19.488Z,8.03
2017-12-30T02:03:48.012Z,15.73
2017-12-30T02:06:16.404Z,15.37
2017-12-30T02:08:44.771Z,9.73
2017-12-30T02:11:13.202Z,11.93
2017-12-30T02:13:41.580Z,15.00
2017-12-30T02:16:09.965Z,22.20
2017-12-30T02:18:38.339Z,12.43
2017-12-30T02:21:06.678Z,11.33
2017-12-30T02:23:35.823Z,11.60
2017-12-30T02:26:04.191Z,14.67
2017-12-30T02:28:32.577Z,12.80
2017-12-30T02:31:01.117Z,21.03
2017-12-30T02:33:30.236Z,14.10
2017-12-30T02:35:58.684Z,15.23
2017-12-30T02:38:27.834Z,17.83
2017-12-30T02:40:56.343Z,14.80
2017-12-30T02:43:24.712Z,20.93
2017-12-30T02:45:53.096Z,10.90
2017-12-30T02:48:21.440Z,18.77
2017-12-30T02:50:49.820Z,10.93
2017-12-30T02:53:18.192Z,13.47
2017-12-30T02:55:46.569Z,12.37
2017-12-30T02:58:14.923Z,9.70
2017-12-30T03:00:43.334Z,19.90
2017-12-30T03:03:11.700Z,17.70
2017-12-30T03:05:40.233Z,15.20
2017-12-30T03:08:08.609Z,10.83
2017-12-30T03:10:36.969Z,15.10
2017-12-30T03:13:05.344Z,18.10
2017-12-30T03:15:34.044Z,12.60
2017-12-30T03:18:02.396Z,9.63
2017-12-30T03:20:30.921Z,22.43
2017-12-30T03:23:00.042Z,9.33
2017-12-30T03:25:28.394Z,14.73
2017-12-30T03:27:57.545Z,11.30
2017-12-30T03:30:25.898Z,14.73
2017-12-30T03:32:54.258Z,19.27
2017-12-30T03:35:23.396Z,19.63
2017-12-30T03:37:51.928Z,19.77
2017-12-30T03:40:21.038Z,16.37
2017-12-30T03:42:50.186Z,16.63
2017-12-30T03:45:18.563Z,10.53
2017-12-30T03:47:46.922Z,9.20
2017-12-30T03:50:15.470Z,16.10
2017-12-30T03:52:43.820Z,16.83
2017-12-30T03:55:12.976Z,14.27
2017-12-30T03:57:41.348Z,11.63
2017-12-30T04:00:09.880Z,10.50
2017-12-30T04:02:38.260Z,13.90
2017-12-30T04:05:06.839Z,11.10
2017-12-30T04:07:35.985Z,13.47
2017-12-30T04:10:04.494Z,13.70
2017-12-30T04:12:32.961Z,20.30
2017-12-30T04:15:01.484Z,14.13
2017-12-30T04:17:30.637Z,13.37
2017-12-30T04:19:59.331Z,13.93
2017-12-30T04:22:27.677Z,15.90
2017-12-30T04:24:56.058Z,14.93
2017-12-30T04:27:24.490Z,10.67
2017-12-30T04:29:52.850Z,16.00
2017-12-30T04:32:21.240Z,19.17
2017-12-30T04:34:49.605Z,9.87
2017-12-30T04:37:17.983Z,17.00
2017-12-30T04:39:46.355Z,10.43
2017-12-30T04:42:14.732Z,10.97
2017-12-30T04:44:43.183Z,14.37
2017-12-30T04:47:11.536Z,17.53
2017-12-30T04:49:39.886Z,14.77
2017-12-30T04:52:08.267Z,15.00
2017-12-30T04:54:36.626Z,12.50
2017-12-30T04:57:06.583Z,17.90
2017-12-30T04:59:34.752Z,10.83
2017-12-30T05:02:03.883Z,18.90
2017-12-30T05:04:32.235Z,14.37
2017-12-30T05:07:01.314Z,10.53
2017-12-30T05:09:31.168Z,14.43
2017-12-30T05:11:59.510Z,19.63
2017-12-30T05:14:27.871Z,16.87
2017-12-30T05:16:57.194Z,13.80
2017-12-30T05:19:25.569Z,9.97
2017-12-30T05:21:54.691Z,16.67
2017-12-30T05:24:23.048Z,8.97
2017-12-30T05:26:51.447Z,13.90
2017-12-30T05:29:19.829Z,9.73
2017-12-30T05:31:48.181Z,9.33
2017-12-30T05:34:16.693Z,10.80
2017-12-30T05:36:45.193Z,20.27
2017-12-30T05:39:13.649Z,13.43
2017-12-30T05:41:42.173Z,14.63
2017-12-30T05:44:10.527Z,11.67
2017-12-30T05:46:39.000Z,17.23
2017-12-30T05:49:07.358Z,11.50
2017-12-30T05:51:35.726Z,12.23
2017-12-30T05:54:04.109Z,13.17
2017-12-30T05:56:32.634Z,17.93
2017-12-30T05:59:02.489Z,21.60
2017-12-30T06:01:30.904Z,17.53
2017-12-30T06:04:01.746Z,25.63
2017-12-30T06:06:30.104Z,21.73
2017-12-30T06:08:58.525Z,14.23
2017-12-30T06:11:26.878Z,14.73
2017-12-30T06:13:55.408Z,18.93
2017-12-30T06:16:24.526Z,17.67
2017-12-30T06:18:52.906Z,17.23
2017-12-30T06:21:21.386Z,13.33
2017-12-30T06:23:49.744Z,24.10
2017-12-30T06:26:18.842Z,15.37
2017-12-30T06:28:47.209Z,14.10
2017-12-30T06:31:15.567Z,24.67
2017-12-30T06:33:43.943Z,14.00
2017-12-30T06:36:13.169Z,18.27
2017-12-30T06:38:41.535Z,11.23
2017-12-30T06:41:10.658Z,17.90
2017-12-30T06:43:39.218Z,19.13
2017-12-30T06:46:08.487Z,14.23
2017-12-30T06:48:38.302Z,23.03
2017-12-30T06:51:06.677Z,17.87
2017-12-30T06:53:35.211Z,10.80
2017-12-30T06:56:03.795Z,13.10
2017-12-30T06:58:32.143Z,12.50
2017-12-30T07:01:01.317Z,14.83
2017-12-30T07:03:29.994Z,11.40
2017-12-30T07:05:58.363Z,13.07
2017-12-30T07:08:26.720Z,12.43
2017-12-30T07:10:55.084Z,16.27
2017-12-30T07:13:23.489Z,15.70
2017-12-30T07:15:51.865Z,16.30
2017-12-30T07:18:20.213Z,13.67
2017-12-30T07:20:48.606Z,11.90
2017-12-30T07:23:17.240Z,17.70
2017-12-30T07:25:45.585Z,17.10
2017-12-30T07:28:16.145Z,17.97
2017-12-30T07:30:44.511Z,13.83
2017-12-30T07:33:13.011Z,17.73
2017-12-30T07:35:42.156Z,11.17
2017-12-30T07:38:10.585Z,15.90
2017-12-30T07:40:39.730Z,14.60
2017-12-30T07:43:08.168Z,12.60
2017-12-30T07:45:37.409Z,16.80
2017-12-30T07:48:05.767Z,15.47
2017-12-30T07:50:34.124Z,12.07
2017-12-30T07:53:03.265Z,11.90
2017-12-30T07:55:31.796Z,12.77
2017-12-30T07:58:00.909Z,12.00
2017-12-30T08:00:29.306Z,16.47
2017-12-30T08:02:57.780Z,13.53
2017-12-30T08:05:26.199Z,15.10
2017-12-30T08:07:55.363Z,14.23
2017-12-30T08:10:23.749Z,13.90
2017-12-30T08:12:52.119Z,11.10
2017-12-30T08:15:21.086Z,16.77
2017-12-30T08:17:49.451Z,15.20
2017-12-30T08:20:18.883Z,10.20
2017-12-30T08:22:47.233Z,8.93
2017-12-30T08:25:16.407Z,10.97
2017-12-30T08:27:44.760Z,8.63
2017-12-30T08:30:13.403Z,5.97
2017-12-30T08:32:41.782Z,7.53
2017-12-30T08:35:10.149Z,8.17
2017-12-30T08:37:39.351Z,6.50
2017-12-30T08:40:08.598Z,9.80
2017-12-30T08:42:36.968Z,11.27
2017-12-30T08:45:05.346Z,8.73
2017-12-30T08:47:33.713Z,8.47
2017-12-30T08:50:02.110Z,7.67
2017-12-30T08:52:30.484Z,8.77
2017-12-30T08:54:59.014Z,7.77
2017-12-30T08:57:28.150Z,7.40
2017-12-30T08:59:57.323Z,5.77
2017-12-30T09:02:25.676Z,9.93
2017-12-30T09:04:54.840Z,8.83
2017-12-30T09:07:23.302Z,7.13
2017-12-30T09:09:51.722Z,7.27
2017-12-30T09:12:20.866Z,6.70
2017-12-30T09:14:49.271Z,7.03
2017-12-30T09:17:17.638Z,6.80
2017-12-30T09:19:46.026Z,11.33
2017-12-30T09:22:14.382Z,8.87
2017-12-30T09:24:42.750Z,8.90
2017-12-30T09:27:11.099Z,8.53
2017-12-30T09:29:40.239Z,11.00
2017-12-30T09:32:08.818Z,8.67
2017-12-30T09:34:37.198Z,11.47
2017-12-30T09:37:05.597Z,8.83
2017-12-30T09:39:33.959Z,11.40
2017-12-30T09:42:02.329Z,8.37
2017-12-30T09:44:30.713Z,7.40
2017-12-30T09:46:59.086Z,6.83
2017-12-30T09:49:27.445Z,7.87
2017-12-30T09:51:55.820Z,6.97
2017-12-30T09:54:24.312Z,5.73
2017-12-30T09:56:52.665Z,5.23
2017-12-30T09:59:21.012Z,5.17
2017-12-30T10:01:49.568Z,4.13
2017-12-30T10:04:18.254Z,6.73
2017-12-30T10:06:46.609Z,4.70
2017-12-30T10:09:14.967Z,5.10
2017-12-30T10:11:43.309Z,4.23
2017-12-30T10:14:11.709Z,3.83
2017-12-30T10:16:40.876Z,6.40
2017-12-30T10:19:09.473Z,7.30
2017-12-30T10:21:38.017Z,4.50
2017-12-30T10:24:06.386Z,6.83
2017-12-30T10:26:34.767Z,4.83
2017-12-30T10:29:03.154Z,6.10
2017-12-30T10:31:31.838Z,4.57
2017-12-30T10:34:00.210Z,5.17
2017-12-30T10:36:28.602Z,4.73
2017-12-30T10:38:56.975Z,5.97
2017-12-30T10:41:25.357Z,6.50
2017-12-30T10:43:53.722Z,3.83
2017-12-30T10:46:22.082Z,3.97
2017-12-30T10:48:50.465Z,5.47
2017-12-30T10:51:19.747Z,4.97
2017-12-30T10:53:48.134Z,4.33
2017-12-30T10:56:16.878Z,6.47
2017-12-30T10:58:45.250Z,6.00
2017-12-30T11:01:14.385Z,4.10
2017-12-30T11:03:42.733Z,5.87
2017-12-30T11:06:11.089Z,8.13
2017-12-30T11:08:39.740Z,5.50
2017-12-30T11:11:08.129Z,4.17
2017-12-30T11:13:36.489Z,11.50
2017-12-30T11:16:05.468Z,11.00
2017-12-30T11:18:33.842Z,11.67
2017-12-30T11:21:02.962Z,22.57
2017-12-30T11:23:31.314Z,27.23
2017-12-30T11:26:00.430Z,33.73
2017-12-30T11:28:28.778Z,30.53
2017-12-30T11:30:57.983Z,24.93
2017-12-30T11:33:26.344Z,21.10
2017-12-30T11:35:55.473Z,24.07
2017-12-30T11:38:24.020Z,22.33
2017-12-30T11:40:52.680Z,26.83
2017-12-30T11:43:21.057Z,25.00
2017-12-30T11:45:49.400Z,31.17
2017-12-30T11:48:17.811Z,25.27
2017-12-30T11:50:46.194Z,30.77
2017-12-30T11:53:14.549Z,26.20
2017-12-30T11:55:43.126Z,33.57
2017-12-30T11:58:11.470Z,29.83
2017-12-30T12:00:40.834Z,30.50
2017-12-30T12:03:09.193Z,30.17
2017-12-30T12:05:37.573Z,34.17
2017-12-30T12:08:05.929Z,38.30
2017-12-30T12:10:34.295Z,38.40
2017-12-30T12:13:02.786Z,35.50
2017-12-30T12:15:31.319Z,40.60
2017-12-30T12:17:59.959Z,39.53
2017-12-30T12:20:28.349Z,31.07
2017-12-30T12:22:56.874Z,43.53
2017-12-30T12:25:26.013Z,40.57
2017-12-30T12:27:54.564Z,42.70
2017-12-30T12:30:23.826Z,38.37
2017-12-30T12:32:52.204Z,35.00
2017-12-30T12:35:20.587Z,45.17
2017-12-30T12:37:49.336Z,44.10
2017-12-30T12:40:17.760Z,41.93
2017-12-30T12:42:46.904Z,46.67
2017-12-30T12:45:15.308Z,47.57
2017-12-30T12:47:43.676Z,57.40
2017-12-30T12:50:12.121Z,39.43
2017-12-30T12:52:40.471Z,48.20
2017-12-30T12:55:08.856Z,45.70
2017-12-30T12:57:38.194Z,52.97
2017-12-30T13:00:06.584Z,50.67
2017-12-30T13:02:34.794Z,50.93
2017-12-30T13:05:04.040Z,58.83
2017-12-30T13:07:32.415Z,60.60
2017-12-30T13:10:00.811Z,54.57
2017-12-30T13:12:29.191Z,47.70
2017-12-30T13:14:58.583Z,53.73
2017-12-30T13:17:27.165Z,59.27
2017-12-30T13:19:55.568Z,54.60
2017-12-30T13:22:24.182Z,49.00
2017-12-30T13:24:52.540Z,59.70
2017-12-30T13:27:20.945Z,58.73
2017-12-30T13:29:50.105Z,65.50
2017-12-30T13:32:18.900Z,60.03
2017-12-30T13:34:47.279Z,64.33
2017-12-30T13:37:15.861Z,44.67
2017-12-30T13:39:44.265Z,54.57
2017-12-30T13:42:13.668Z,48.97
2017-12-30T13:44:42.810Z,45.87
2017-12-30T13:47:11.204Z,54.50
2017-12-30T13:49:39.590Z,68.97
2017-12-30T13:52:07.965Z,58.50
2017-12-30T13:54:36.347Z,45.57
2017-12-30T13:57:04.717Z,45.87
2017-12-30T13:59:33.247Z,57.13
2017-12-30T14:02:02.578Z,43.97
2017-12-30T14:04:30.987Z,55.30
2017-12-30T14:06:59.351Z,55.13
2017-12-30T14:09:27.855Z,52.73
2017-12-30T14:11:57.031Z,56.97
2017-12-30T14:14:25.422Z,54.97
2017-12-30T14:16:53.935Z,56.47
2017-12-30T14:19:23.101Z,50.17
2017-12-30T14:21:51.470Z,58.43
2017-12-30T14:24:19.724Z,46.47
2017-12-30T14:26:48.106Z,48.67
2017-12-30T14:29:16.643Z,54.13
2017-12-30T14:31:45.794Z,48.90
2017-12-30T14:34:13.986Z,51.03
2017-12-30T14:36:42.375Z,49.13
2017-12-30T14:39:10.735Z,49.93
2017-12-30T14:41:39.126Z,53.77
2017-12-30T14:44:07.494Z,48.33
2017-12-30T14:46:35.876Z,48.17
2017-12-30T14:49:05.050Z,57.33
2017-12-30T14:51:33.555Z,46.37
2017-12-30T14:54:01.932Z,52.03
2017-12-30T14:56:30.628Z,42.20
2017-12-30T14:58:59.005Z,51.67
2017-12-30T15:01:27.387Z,41.20
2017-12-30T15:03:56.574Z,46.63
2017-12-30T15:06:24.939Z,42.37
2017-12-30T15:08:53.343Z,45.03
2017-12-30T15:11:21.919Z,58.10
2017-12-30T15:13:50.300Z,57.53
2017-12-30T15:16:18.643Z,46.87
2017-12-30T15:18:47.024Z,45.37
2017-12-30T15:21:15.445Z,49.37
2017-12-30T15:23:44.617Z,46.30
2017-12-30T15:26:13.058Z,49.87
2017-12-30T15:28:41.501Z,55.57
2017-12-30T15:31:09.875Z,41.97
2017-12-30T15:33:39.018Z,46.13
2017-12-30T15:36:07.601Z,47.13
2017-12-30T15:38:36.019Z,52.63
2017-12-30T15:41:04.393Z,41.00
2017-12-30T15:43:32.764Z,46.77
2017-12-30T15:46:01.309Z,39.60
2017-12-30T15:48:29.689Z,47.63
2017-12-30T15:50:58.213Z,33.77
2017-12-30T15:53:27.564Z,50.47
2017-12-30T15:55:55.942Z,47.70
2017-12-30T15:58:24.318Z,46.27
2017-12-30T16:00:52.805Z,54.27
2017-12-30T16:03:21.385Z,39.83
2017-12-30T16:05:49.822Z,41.90
2017-12-30T16:08:18.186Z,46.23
2017-12-30T16:10:46.546Z,40.53
2017-12-30T16:13:14.935Z,48.43
2017-12-30T16:15:43.293Z,47.90
2017-12-30T16:18:11.667Z,51.83
2017-12-30T16:20:39.858Z,51.10
2017-12-30T16:23:08.297Z,45.07
2017-12-30T16:25:36.685Z,39.70
2017-12-30T16:28:05.070Z,43.23
2017-12-30T16:30:33.471Z,54.87
2017-12-30T16:33:02.619Z,55.33
2017-12-30T16:35:31.009Z,51.27
2017-12-30T16:37:59.378Z,43.93
2017-12-30T16:40:27.915Z,46.30
2017-12-30T16:42:55.995Z,47.37
2017-12-30T16:45:24.360Z,51.27
2017-12-30T16:47:53.335Z,45.40
2017-12-30T16:50:21.713Z,48.20
2017-12-30T16:52:50.242Z,42.17
2017-12-30T16:55:19.641Z,44.50
2017-12-30T16:57:49.084Z,52.73
2017-12-30T17:00:17.502Z,36.00
2017-12-30T17:02:45.850Z,47.73
2017-12-30T17:05:14.424Z,54.23
2017-12-30T17:07:42.809Z,40.00
2017-12-30T17:10:11.211Z,46.70
2017-12-30T17:12:39.691Z,43.07
2017-12-30T17:15:08.094Z,53.23
2017-12-30T17:17:37.254Z,48.33
2017-12-30T17:20:05.644Z,46.93
2017-12-30T17:22:34.051Z,46.97
2017-12-30T17:25:03.178Z,43.20
2017-12-30T17:27:32.533Z,40.83
2017-12-30T17:30:01.740Z,39.17
2017-12-30T17:32:30.258Z,45.13
2017-12-30T17:34:58.942Z,42.60
2017-12-30T17:37:27.346Z,48.77
2017-12-30T17:39:55.394Z,44.50
2017-12-30T17:42:23.743Z,38.23
2017-12-30T17:44:52.115Z,42.90
2017-12-30T17:47:21.521Z,41.57
2017-12-30T17:49:49.906Z,44.60
2017-12-30T17:52:18.336Z,39.20
2017-12-30T17:54:46.716Z,35.33
2017-12-30T17:57:15.092Z,27.97
2017-12-30T17:59:43.472Z,30.90
2017-12-30T18:02:11.842Z,37.27
2017-12-30T18:04:40.331Z,32.40
2017-12-30T18:07:08.711Z,36.10
2017-12-30T18:09:36.924Z,35.20
2017-12-30T18:12:06.216Z,30.40
2017-12-30T18:14:35.482Z,37.23
2017-12-30T18:17:04.766Z,41.73
2017-12-30T18:19:33.165Z,32.90
2017-12-30T18:22:03.099Z,30.93
2017-12-30T18:24:32.279Z,27.30
2017-12-30T18:27:00.650Z,38.60
2017-12-30T18:29:29.109Z,34.17
2017-12-30T18:31:57.505Z,35.77
2017-12-30T18:34:25.900Z,38.67
2017-12-30T18:36:54.295Z,37.77
2017-12-30T18:39:23.466Z,33.67
2017-12-30T18:41:51.845Z,33.97
2017-12-30T18:44:20.280Z,27.37
2017-12-30T18:46:48.624Z,25.23
2017-12-30T18:49:17.786Z,39.17
2017-12-30T18:51:46.152Z,37.07
2017-12-30T18:54:14.548Z,34.30
2017-12-30T18:56:42.921Z,33.37
2017-12-30T18:59:11.296Z,36.00
2017-12-30T19:01:39.661Z,38.20
2017-12-30T19:04:08.034Z,27.87
2017-12-30T19:06:36.398Z,31.10
2017-12-30T19:09:03.930Z,42.67
2017-12-30T19:11:33.073Z,30.33
2017-12-30T19:14:01.435Z,38.87
2017-12-30T19:16:29.894Z,26.77
2017-12-30T19:18:58.502Z,33.47
2017-12-30T19:21:27.084Z,30.33
2017-12-30T19:23:55.924Z,33.83
2017-12-30T19:26:25.111Z,29.77
2017-12-30T19:28:53.544Z,45.20
2017-12-30T19:31:22.161Z,28.33
2017-12-30T19:33:50.565Z,35.27
2017-12-30T19:36:19.724Z,40.07
2017-12-30T19:38:48.091Z,28.33
2017-12-30T19:41:16.468Z,35.13
2017-12-30T19:43:44.867Z,41.33
2017-12-30T19:46:14.028Z,37.83
2017-12-30T19:48:42.695Z,31.50
2017-12-30T19:51:11.063Z,38.63
2017-12-30T19:53:40.213Z,39.20
2017-12-30T19:56:08.595Z,36.10
2017-12-30T19:58:37.658Z,34.97
2017-12-30T20:01:06.101Z,35.60
2017-12-30T20:03:35.279Z,35.90
2017-12-30T20:06:03.751Z,29.60
2017-12-30T20:08:32.239Z,22.63
2017-12-30T20:11:01.458Z,32.77
2017-12-30T20:13:31.249Z,36.23
2017-12-30T20:16:00.441Z,36.90
2017-12-30T20:18:29.630Z,33.70
2017-12-30T20:20:58.200Z,27.43
2017-12-30T20:23:26.771Z,32.83
2017-12-30T20:25:55.445Z,32.73
2017-12-30T20:28:23.852Z,45.30
2017-12-30T20:30:52.290Z,38.37
2017-12-30T20:33:20.732Z,31.70
2017-12-30T20:35:49.266Z,37.77
2017-12-30T20:38:17.672Z,27.40
2017-12-30T20:40:46.105Z,37.77
2017-12-30T20:43:14.547Z,26.07
2017-12-30T20:45:43.871Z,35.93
2017-12-30T20:48:13.040Z,27.73
2017-12-30T20:50:42.995Z,29.67
2017-12-30T20:53:11.475Z,36.60
2017-12-30T20:55:39.921Z,34.93
2017-12-30T20:58:08.576Z,32.57
2017-12-30T21:00:36.938Z,32.80
2017-12-30T21:03:05.345Z,38.67
2017-12-30T21:05:33.718Z,40.90
2017-12-30T21:08:02.178Z,36.27
2017-12-30T21:10:30.627Z,39.77
2017-12-30T21:12:59.058Z,34.17
2017-12-30T21:15:27.478Z,37.27
2017-12-30T21:17:56.008Z,38.03
2017-12-30T21:20:24.616Z,34.90
2017-12-30T21:22:53.799Z,50.50
2017-12-30T21:25:22.266Z,34.93
2017-12-30T21:27:50.761Z,37.67
2017-12-30T21:30:19.236Z,35.37
2017-12-30T21:32:47.723Z,34.13
2017-12-30T21:35:16.160Z,36.33
2017-12-30T21:37:44.856Z,31.77
2017-12-30T21:40:13.743Z,29.53
2017-12-30T21:42:42.322Z,33.57
2017-12-30T21:45:10.949Z,39.67
2017-12-30T21:47:39.359Z,28.37
2017-12-30T21:50:08.515Z,39.80
2017-12-30T21:52:36.933Z,30.50
2017-12-30T21:55:06.128Z,33.77
2017-12-30T21:57:35.974Z,37.30
2017-12-30T22:00:04.383Z,29.00
2017-12-30T22:02:32.827Z,36.37
2017-12-30T22:05:01.226Z,33.40
2017-12-30T22:07:29.737Z,32.07
2017-12-30T22:09:58.126Z,29.27
2017-12-30T22:12:26.519Z,26.87
2017-12-30T22:14:55.716Z,35.83
2017-12-30T22:17:25.050Z,35.30
2017-12-30T22:19:53.634Z,30.50
2017-12-30T22:22:22.307Z,39.50
2017-12-30T22:24:50.872Z,40.77
2017-12-30T22:27:19.494Z,37.27
2017-12-30T22:29:48.188Z,31.53
2017-12-30T22:32:16.592Z,34.93
2017-12-30T22:34:45.055Z,41.23
2017-12-30T22:37:13.427Z,32.40
2017-12-30T22:39:41.816Z,32.97
2017-12-30T22:42:10.325Z,24.63
2017-12-30T22:44:38.731Z,37.50
2017-12-30T22:47:07.140Z,32.97
2017-12-30T22:49:35.701Z,30.27
2017-12-30T22:52:04.071Z,30.20
2017-12-30T22:54:32.597Z,38.30
2017-12-30T22:57:00.975Z,38.97
2017-12-30T22:59:29.353Z,29.43
2017-12-30T23:01:58.082Z,29.03
2017-12-30T23:04:27.375Z,32.73
2017-12-30T23:06:55.907Z,36.80
2017-12-30T23:09:24.291Z,28.73
2017-12-30T23:11:52.683Z,36.47
2017-12-30T23:14:21.222Z,33.50
2017-12-30T23:16:49.609Z,31.13
2017-12-30T23:19:18.006Z,28.23
2017-12-30T23:21:46.458Z,43.13
2017-12-30T23:24:14.872Z,36.03
2017-12-30T23:26:43.241Z,31.10
2017-12-30T23:29:11.617Z,25.50
2017-12-30T23:31:40.026Z,35.13
2017-12-30T23:34:09.365Z,34.13
2017-12-30T23:36:38.010Z,30.73
2017-12-30T23:39:07.144Z,33.50
2017-12-30T23:41:35.730Z,28.50
2017-12-30T23:44:04.107Z,30.73
2017-12-30T23:46:32.480Z,39.57
2017-12-30T23:49:00.855Z,27.27
2017-12-30T23:51:29.396Z,23.97
2017-12-30T23:53:58.556Z,24.07
2017-12-30T23:56:26.941Z,31.17
2017-12-30T23:58:55.307Z,32.73
